West Duluth, Minnesota
Current Conditions -  °F | °C
As of 12:15 AM on Wednesday 28 Jan 2015 (Local Time) from KSUW Reporting Station
Overcast Overcast  
Wind Chill: 23°   Ceiling: 11000
Heat Index: 28°   Visibility: 10mi
Dew Point: 23°   Wind: 5mph
Humidity: 80%   Direction: 210°SSW
Pressure: 30.12"   Gusts: NA
Location:  46.7408°N, 92.1704°W
Report Text: KSUW 280615Z AUTO 21004KT 10SM OVC110 M02/M05 A3012 RMK AO2 T10201051
Loading
Personal Weather Stations






























Interactive Weather Map New forecast layout! Learn more

10-Day Weather Forecast

Advertisements
Track Severe Weather on mobile